Time;durP1;ratioP1;P1;durP2;ratioP2;P2;SDS_P1;SDS_P2;PMS_P1;PMS_P2;Temp;Humidity;BMP_temperature;BMP_pressure;BME280_temperature;BME280_humidity;BME280_pressure;Samples;Min_cycle;Max_cycle;Signal;HPM_P1;HPM_P2
2021/12/24 00:00:37;;;;;;;28.52;11.32;;;7.40;99.90;;;;;;5093813;28;20440;-77
2021/12/24 00:03:03;;;;;;;27.15;10.98;;;7.40;99.90;;;;;;5093268;28;20020;-77
2021/12/24 00:05:29;;;;;;;30.73;12.50;;;7.50;99.90;;;;;;5093407;28;20468;-77
2021/12/24 00:07:54;;;;;;;31.00;12.10;;;7.40;99.90;;;;;;5075144;28;20022;-77
2021/12/24 00:10:20;;;;;;;27.75;11.18;;;7.50;99.90;;;;;;5093463;28;20024;-78
2021/12/24 00:12:55;;;;;;;20.92;9.48;;;7.50;99.90;;;;;;5074891;28;20028;-78
2021/12/24 00:15:47;;;;;;;28.35;12.10;;;7.50;99.90;;;;;;5093062;28;20024;-78
2021/12/24 00:18:17;;;;;;;31.67;10.90;;;7.50;99.90;;;;;;5093228;28;20418;-77
2021/12/24 00:36:49;;;;;;;27.25;11.45;;;7.70;99.90;;;;;;5093211;28;20123;-76
2021/12/24 00:39:14;;;;;;;29.75;11.10;;;7.80;99.90;;;;;;5074741;28;20455;-76
2021/12/24 00:41:40;;;;;;;39.03;13.40;;;7.80;99.90;;;;;;5093569;28;20111;-76
2021/12/24 00:44:06;;;;;;;30.75;10.93;;;7.80;99.90;;;;;;5095310;28;20024;-75
2021/12/24 00:46:33;;;;;;;28.70;11.05;;;7.80;99.90;;;;;;5093943;28;20452;-76
2021/12/24 00:49:00;;;;;;;26.48;11.60;;;7.90;99.90;;;;;;5076438;28;20487;-77
2021/12/24 00:51:42;;;;;;;37.80;13.30;;;7.90;99.90;;;;;;5075525;28;20028;-76
2021/12/24 00:56:52;;;;;;;37.28;14.65;;;7.90;99.90;;;;;;5092515;28;20047;-76
2021/12/24 00:59:18;;;;;;;35.65;12.32;;;8.00;99.90;;;;;;5075400;28;20028;-76
2021/12/24 01:01:43;;;;;;;29.63;11.63;;;8.00;99.90;;;;;;5092823;28;20368;-76
2021/12/24 01:04:09;;;;;;;27.63;11.27;;;8.00;99.90;;;;;;5092671;28;20050;-76
2021/12/24 01:06:35;;;;;;;33.17;11.75;;;8.10;99.90;;;;;;5074463;28;20095;-77
2021/12/24 01:09:00;;;;;;;24.50;10.80;;;8.10;99.90;;;;;;5074858;28;20445;-76
2021/12/24 01:11:27;;;;;;;29.50;10.73;;;8.10;99.90;;;;;;5096107;28;20472;-77
2021/12/24 01:13:53;;;;;;;20.52;9.15;;;8.20;99.90;;;;;;5078731;28;20020;-76
2021/12/24 01:16:26;;;;;;;32.13;11.98;;;8.20;99.90;;;;;;5096306;28;20106;-76
2021/12/24 01:19:05;;;;;;;24.58;9.60;;;8.20;99.90;;;;;;5078231;28;20337;-77
2021/12/24 01:24:18;;;;;;;27.10;10.35;;;8.30;99.90;;;;;;5096403;28;20086;-77
2021/12/24 01:42:45;;;;;;;19.42;8.02;;;8.40;99.90;;;;;;5095562;28;20031;-77
2021/12/24 01:45:21;;;;;;;15.70;7.82;;;8.40;99.90;;;;;;5077551;28;20030;-77
2021/12/24 01:47:49;;;;;;;21.75;8.63;;;8.40;99.90;;;;;;5095659;28;20107;-77
2021/12/24 01:50:16;;;;;;;18.40;8.90;;;8.40;99.90;;;;;;5095561;28;20025;-77
2021/12/24 01:52:42;;;;;;;21.05;8.30;;;8.50;99.90;;;;;;5077282;28;20056;-77
2021/12/24 01:55:09;;;;;;;18.02;7.07;;;8.50;99.90;;;;;;5095554;28;20074;-77
2021/12/24 01:57:40;;;;;;;22.90;7.50;;;8.50;99.90;;;;;;5095957;28;20502;-76
2021/12/24 02:00:09;;;;;;;15.55;6.90;;;8.50;99.90;;;;;;5095297;28;20024;-77
2021/12/24 02:02:34;;;;;;;21.15;9.20;;;8.50;99.90;;;;;;5096160;28;20099;-76
2021/12/24 02:05:00;;;;;;;22.65;9.48;;;8.50;99.90;;;;;;5078037;28;20107;-78
2021/12/24 02:07:26;;;;;;;22.55;9.73;;;8.60;99.90;;;;;;5077878;28;20023;-78
2021/12/24 02:09:54;;;;;;;23.60;8.25;;;8.50;99.90;;;;;;5077391;28;20017;-78
2021/12/24 02:12:22;;;;;;;22.75;9.75;;;8.60;99.90;;;;;;5077319;28;20070;-78
2021/12/24 02:14:51;;;;;;;22.13;9.35;;;8.60;99.90;;;;;;5077166;28;20032;-78
2021/12/24 02:18:31;;;;;;;20.17;8.25;;;8.70;99.90;;;;;;5096135;28;20020;-78
2021/12/24 02:28:38;;;;;;;21.00;7.90;;;8.70;99.90;;;;;;5095556;28;20040;-77
2021/12/24 02:31:07;;;;;;;29.38;10.35;;;8.70;99.90;;;;;;5094805;28;20020;-77
2021/12/24 02:33:33;;;;;;;19.45;8.60;;;8.70;99.90;;;;;;5094922;28;20088;-77
2021/12/24 02:35:58;;;;;;;27.23;10.07;;;8.70;99.90;;;;;;5078233;28;20028;-77
2021/12/24 02:38:24;;;;;;;19.00;8.02;;;8.70;99.90;;;;;;5080429;28;20034;-77
2021/12/24 02:40:50;;;;;;;27.58;8.95;;;8.70;99.90;;;;;;5098766;28;20028;-76
2021/12/24 02:43:19;;;;;;;21.60;8.63;;;8.70;99.90;;;;;;5082617;28;20051;-77
2021/12/24 02:45:47;;;;;;;29.33;8.30;;;8.80;99.90;;;;;;5076216;28;20032;-77
2021/12/24 02:53:59;;;;;;;23.35;8.77;;;8.80;99.90;;;;;;5094222;28;20085;-77
2021/12/24 02:56:30;;;;;;;21.00;8.60;;;8.80;99.90;;;;;;5077106;28;20034;-77
2021/12/24 02:58:57;;;;;;;27.10;9.83;;;8.80;99.90;;;;;;5076118;28;20020;-77
2021/12/24 03:01:27;;;;;;;32.67;10.35;;;8.80;99.90;;;;;;5076032;28;20455;-77
2021/12/24 03:03:53;;;;;;;24.23;8.57;;;8.90;99.90;;;;;;5076277;28;20028;-77
2021/12/24 03:06:25;;;;;;;27.75;9.07;;;8.90;99.90;;;;;;5075903;28;20110;-78
2021/12/24 03:08:51;;;;;;;32.22;10.05;;;8.90;99.90;;;;;;5076156;28;20016;-75
2021/12/24 03:11:17;;;;;;;42.55;11.35;;;8.90;99.90;;;;;;5075898;28;20405;-76
2021/12/24 03:13:43;;;;;;;37.40;10.52;;;8.90;99.90;;;;;;5075694;28;20118;-76
2021/12/24 03:16:08;;;;;;;30.35;9.52;;;8.90;99.90;;;;;;5093957;28;20028;-76
2021/12/24 03:18:38;;;;;;;32.55;9.70;;;9.00;99.90;;;;;;5094035;28;20028;-77
2021/12/24 03:21:11;;;;;;;34.95;10.43;;;8.90;99.90;;;;;;5075891;28;20016;-76
2021/12/24 03:24:34;;;;;;;27.88;9.40;;;9.00;99.90;;;;;;5075438;28;20448;-76
2021/12/24 03:26:39;;;;;;;33.58;10.02;;;9.00;99.90;;;;;;5093220;28;20362;-75
2021/12/24 03:29:06;;;;;;;29.45;9.75;;;9.00;99.90;;;;;;5093737;28;20453;-76
2021/12/24 03:31:33;;;;;;;29.48;11.25;;;9.00;99.90;;;;;;5094285;28;20103;-76
2021/12/24 03:33:59;;;;;;;37.25;11.80;;;9.00;99.90;;;;;;5092958;28;20453;-76
2021/12/24 03:36:26;;;;;;;31.95;12.02;;;9.00;99.90;;;;;;5094120;28;20114;-77
2021/12/24 03:38:53;;;;;;;34.03;12.15;;;9.10;99.90;;;;;;5076101;28;20024;-77
2021/12/24 03:41:20;;;;;;;35.05;13.13;;;9.10;99.90;;;;;;5075692;28;20452;-77
2021/12/24 03:43:45;;;;;;;35.00;12.02;;;9.10;99.90;;;;;;5093161;28;20468;-77
2021/12/24 03:46:15;;;;;;;30.10;10.90;;;9.10;99.90;;;;;;5076002;28;20111;-77
2021/12/24 03:48:56;;;;;;;26.33;10.55;;;9.20;99.90;;;;;;5074959;28;20020;-76
2021/12/24 03:56:33;;;;;;;35.08;13.50;;;9.20;99.90;;;;;;5093832;28;20085;-76
2021/12/24 03:58:59;;;;;;;37.75;14.20;;;9.20;99.90;;;;;;5075318;28;20035;-76
2021/12/24 04:01:25;;;;;;;28.25;12.32;;;9.20;99.90;;;;;;5093239;28;20020;-76
2021/12/24 04:03:51;;;;;;;29.92;12.02;;;9.20;99.90;;;;;;5075007;28;20414;-77
2021/12/24 04:06:17;;;;;;;42.78;15.65;;;9.30;99.90;;;;;;5093192;28;20456;-76
2021/12/24 04:08:42;;;;;;;42.78;14.35;;;9.20;99.90;;;;;;5074751;28;20061;-76
2021/12/24 04:11:08;;;;;;;36.35;14.20;;;9.30;99.90;;;;;;5074932;28;20012;-76
2021/12/24 04:13:35;;;;;;;35.97;12.77;;;9.30;99.90;;;;;;5092947;28;20024;-76
2021/12/24 04:16:01;;;;;;;33.90;13.63;;;9.30;99.90;;;;;;5092985;28;20028;-76
2021/12/24 04:26:28;;;;;;;39.97;14.98;;;9.30;99.90;;;;;;5093441;28;20055;-76
2021/12/24 04:28:53;;;;;;;40.15;13.43;;;9.30;99.90;;;;;;5095273;28;20398;-76
2021/12/24 04:31:25;;;;;;;31.92;12.20;;;9.30;99.90;;;;;;5078245;28;20020;-76
2021/12/24 04:33:51;;;;;;;;;;;9.30;99.90;;;;;;5076458;28;20504;-76
2021/12/24 04:36:39;;;;;;;28.70;11.52;;;9.30;99.90;;;;;;5094646;28;20030;-76
2021/12/24 05:03:37;;;;;;;35.05;13.48;;;9.30;99.90;;;;;;5097139;28;20063;-75
2021/12/24 05:08:40;;;;;;;34.60;11.38;;;9.30;99.90;;;;;;5096486;28;20024;-75
2021/12/24 05:11:10;;;;;;;27.92;9.27;;;9.30;99.90;;;;;;5096453;28;20016;-78
2021/12/24 05:13:37;;;;;;;30.53;11.03;;;9.30;99.90;;;;;;5096209;28;20024;-78
2021/12/24 05:16:19;;;;;;;29.58;10.20;;;9.30;99.90;;;;;;5095864;28;20028;-75
2021/12/24 05:21:32;;;;;;;;;;;9.30;99.90;;;;;;5096422;28;20096;-76
2021/12/24 05:21:43;;;;;;;34.15;11.13;;;9.30;99.90;;;;;;5096146;28;19904;-76
2021/12/24 05:24:13;;;;;;;38.05;13.35;;;9.30;99.90;;;;;;5077586;28;20055;-76
2021/12/24 05:26:40;;;;;;;27.13;11.18;;;9.30;99.90;;;;;;5077948;28;20558;-76
2021/12/24 05:29:07;;;;;;;31.65;10.55;;;9.30;99.90;;;;;;5096044;28;20459;-76
2021/12/24 05:31:33;;;;;;;31.67;10.18;;;9.30;99.90;;;;;;5077524;28;20074;-75
2021/12/24 05:33:59;;;;;;;29.27;12.55;;;9.30;99.90;;;;;;5077854;28;20046;-75
2021/12/24 05:36:26;;;;;;;28.75;11.45;;;9.30;99.90;;;;;;5095925;28;20096;-75
2021/12/24 05:38:51;;;;;;;35.22;11.93;;;9.30;99.90;;;;;;5078430;28;20031;-75
2021/12/24 05:41:18;;;;;;;23.23;9.52;;;9.30;99.90;;;;;;5095879;28;20028;-75
2021/12/24 05:43:44;;;;;;;27.75;10.30;;;9.30;99.90;;;;;;5096609;28;20023;-75
2021/12/24 05:46:10;;;;;;;31.00;10.63;;;9.30;99.90;;;;;;5077339;28;20392;-77
2021/12/24 05:48:36;;;;;;;32.80;11.07;;;9.30;99.90;;;;;;5095560;28;20016;-78
2021/12/24 05:51:03;;;;;;;34.92;11.38;;;9.30;99.90;;;;;;5077723;28;20078;-77
2021/12/24 05:53:29;;;;;;;24.33;9.60;;;9.30;99.90;;;;;;5077432;28;20104;-74
2021/12/24 05:55:55;;;;;;;31.40;11.73;;;9.30;99.90;;;;;;5076545;28;20134;-75
2021/12/24 05:58:21;;;;;;;31.13;11.05;;;9.30;99.90;;;;;;5095929;28;20411;-75
2021/12/24 06:00:48;;;;;;;26.33;9.30;;;9.30;99.90;;;;;;5095435;28;20024;-75
2021/12/24 06:03:15;;;;;;;29.58;10.00;;;9.30;99.90;;;;;;5095370;28;20039;-78
2021/12/24 06:05:41;;;;;;;33.15;10.85;;;9.30;99.90;;;;;;5077210;28;20031;-78
2021/12/24 06:08:07;;;;;;;30.17;10.48;;;9.30;99.90;;;;;;5095374;28;20039;-77
2021/12/24 06:10:34;;;;;;;27.63;9.65;;;9.30;99.90;;;;;;5095239;28;20020;-78
2021/12/24 06:13:00;;;;;;;26.55;9.75;;;9.30;99.90;;;;;;5095055;28;20115;-75
2021/12/24 06:15:27;;;;;;;34.15;10.05;;;9.30;99.90;;;;;;5095185;28;20024;-75
2021/12/24 06:17:56;;;;;;;24.98;9.52;;;9.30;99.90;;;;;;5077483;28;20024;-76
2021/12/24 06:20:24;;;;;;;34.92;11.68;;;9.30;99.90;;;;;;5094999;28;20073;-76
2021/12/24 06:22:50;;;;;;;20.33;7.32;;;9.30;99.90;;;;;;5076776;28;20039;-76
2021/12/24 06:25:18;;;;;;;23.23;9.00;;;9.30;99.90;;;;;;5095005;28;20484;-77
2021/12/24 06:27:44;;;;;;;25.40;8.52;;;9.30;99.90;;;;;;5078651;28;20059;-77
2021/12/24 06:30:11;;;;;;;25.20;9.82;;;9.30;99.90;;;;;;5096128;28;20105;-76
2021/12/24 06:32:37;;;;;;;22.38;7.03;;;9.30;99.90;;;;;;5095020;28;20465;-76
2021/12/24 06:35:05;;;;;;;24.05;8.50;;;9.30;99.90;;;;;;5076610;28;20024;-76
2021/12/24 06:37:31;;;;;;;17.73;7.97;;;9.30;99.90;;;;;;5094343;28;20384;-76
2021/12/24 06:39:56;;;;;;;18.05;7.30;;;9.30;99.90;;;;;;5094763;28;20104;-76
2021/12/24 06:42:22;;;;;;;21.75;7.60;;;9.20;99.90;;;;;;5076417;28;20020;-76
2021/12/24 06:44:48;;;;;;;17.85;6.78;;;9.30;99.90;;;;;;5076068;28;20465;-76
2021/12/24 06:47:14;;;;;;;14.10;5.90;;;9.30;99.90;;;;;;5076258;28;20031;-76
2021/12/24 06:49:40;;;;;;;24.35;6.97;;;9.20;99.90;;;;;;5094239;28;20049;-75
2021/12/24 06:52:06;;;;;;;20.23;8.00;;;9.20;99.90;;;;;;5076214;28;20376;-77
2021/12/24 06:54:33;;;;;;;16.10;6.50;;;9.30;99.90;;;;;;5076951;28;20032;-77
2021/12/24 06:57:00;;;;;;;20.35;7.63;;;9.20;99.90;;;;;;5094343;28;20103;-77
2021/12/24 06:59:27;;;;;;;20.17;7.60;;;9.20;99.90;;;;;;5076336;28;20102;-81
2021/12/24 07:01:52;;;;;;;18.70;6.45;;;9.20;99.90;;;;;;5094407;28;20042;-80
2021/12/24 07:04:18;;;;;;;24.20;6.40;;;9.20;99.90;;;;;;5094626;28;20020;-78
2021/12/24 07:06:45;;;;;;;27.15;7.47;;;9.20;99.90;;;;;;5094424;28;20153;-77
2021/12/24 07:09:12;;;;;;;22.15;6.65;;;9.20;99.90;;;;;;5075118;28;20024;-79
2021/12/24 07:11:38;;;;;;;18.60;6.68;;;9.20;99.90;;;;;;5093980;28;20027;-76
2021/12/24 07:14:04;;;;;;;17.55;6.82;;;9.20;99.90;;;;;;5093714;28;20013;-76
2021/12/24 07:16:30;;;;;;;25.17;7.55;;;9.20;99.90;;;;;;5093793;28;20441;-76
2021/12/24 07:18:55;;;;;;;25.80;7.82;;;9.20;99.90;;;;;;5093853;28;20028;-77
2021/12/24 07:21:21;;;;;;;18.20;7.00;;;9.20;99.90;;;;;;5093673;28;20035;-77
2021/12/24 07:23:47;;;;;;;25.98;8.80;;;9.20;99.90;;;;;;5094247;28;20464;-79
2021/12/24 07:26:12;;;;;;;21.50;8.27;;;9.20;99.90;;;;;;5093420;28;20039;-78
2021/12/24 07:28:38;;;;;;;22.08;8.77;;;9.20;99.90;;;;;;5094163;28;20079;-79
2021/12/24 07:31:04;;;;;;;25.13;8.77;;;9.10;99.90;;;;;;5094057;28;20138;-78
2021/12/24 07:33:29;;;;;;;23.40;8.55;;;9.10;99.90;;;;;;5093430;28;20027;-78
2021/12/24 07:35:55;;;;;;;18.55;6.90;;;9.10;99.90;;;;;;5075574;28;20028;-78
2021/12/24 07:38:21;;;;;;;30.27;9.27;;;9.10;99.90;;;;;;5093873;28;20058;-77
2021/12/24 07:40:47;;;;;;;25.77;9.20;;;9.10;99.90;;;;;;5075801;28;20032;-77
2021/12/24 07:43:13;;;;;;;28.80;9.07;;;9.10;99.90;;;;;;5093875;28;20031;-78
2021/12/24 07:45:40;;;;;;;19.38;7.85;;;9.10;99.90;;;;;;5076667;28;20072;-79
2021/12/24 07:48:11;;;;;;;19.80;7.72;;;9.10;99.90;;;;;;5094201;28;20111;-78
2021/12/24 07:53:08;;;;;;;13.52;6.00;;;9.10;99.90;;;;;;5094486;28;20069;-78
2021/12/24 07:55:35;;;;;;;14.80;5.80;;;9.10;99.90;;;;;;5094275;28;20016;-79
2021/12/24 07:58:01;;;;;;;17.73;6.25;;;9.10;99.90;;;;;;5094805;28;20039;-78
2021/12/24 08:00:27;;;;;;;17.98;5.80;;;9.10;99.90;;;;;;5093881;28;20031;-78
2021/12/24 08:02:54;;;;;;;15.75;5.85;;;9.10;99.90;;;;;;5093401;28;20070;-80
2021/12/24 08:05:25;;;;;;;18.05;6.43;;;9.10;99.90;;;;;;5075283;28;20028;-78
2021/12/24 08:07:53;;;;;;;22.27;6.78;;;9.00;99.90;;;;;;5076015;28;20079;-79
2021/12/24 08:10:24;;;;;;;19.20;6.25;;;9.00;99.90;;;;;;5093783;28;20063;-78
2021/12/24 08:12:50;;;;;;;24.08;7.30;;;9.00;99.90;;;;;;5089288;28;20070;-78
2021/12/24 08:15:17;;;;;;;18.95;7.22;;;9.10;99.90;;;;;;5098571;28;20032;-78
2021/12/24 08:17:44;;;;;;;17.35;6.70;;;9.00;99.90;;;;;;5081333;28;20048;-80
2021/12/24 08:20:10;;;;;;;17.45;6.32;;;9.00;99.90;;;;;;5111565;28;20024;-80
2021/12/24 08:22:36;;;;;;;20.90;6.40;;;9.00;99.90;;;;;;5105415;28;20044;-80
2021/12/24 08:25:05;;;;;;;22.23;5.72;;;9.00;99.90;;;;;;5100621;28;20032;-80
2021/12/24 08:27:33;;;;;;;22.20;7.32;;;9.00;99.90;;;;;;5081824;28;20028;-79
2021/12/24 08:29:58;;;;;;;18.80;6.70;;;9.00;99.90;;;;;;5081884;28;20425;-80
2021/12/24 08:32:24;;;;;;;19.70;6.88;;;9.00;99.90;;;;;;5100001;28;20016;-80
2021/12/24 08:34:52;;;;;;;20.80;7.32;;;9.00;99.90;;;;;;5100096;28;20383;-80
2021/12/24 08:37:18;;;;;;;16.05;6.18;;;9.00;99.90;;;;;;5100164;28;20027;-79
2021/12/24 08:39:43;;;;;;;22.00;6.68;;;9.00;99.90;;;;;;5100081;28;20028;-79
2021/12/24 08:42:09;;;;;;;21.67;6.85;;;9.00;99.90;;;;;;5081548;28;20024;-79
2021/12/24 08:44:36;;;;;;;27.70;8.05;;;9.00;99.90;;;;;;5099948;28;20030;-79
2021/12/24 08:47:03;;;;;;;17.77;6.35;;;9.00;99.90;;;;;;5100093;28;20017;-79
2021/12/24 08:49:30;;;;;;;21.10;7.57;;;9.00;99.90;;;;;;5100365;28;20020;-80
2021/12/24 08:51:56;;;;;;;23.55;7.00;;;9.00;99.90;;;;;;5099613;28;20106;-79
2021/12/24 08:54:24;;;;;;;26.58;8.25;;;9.00;99.90;;;;;;5100156;28;20016;-80
2021/12/24 08:56:50;;;;;;;27.63;8.20;;;9.00;99.90;;;;;;5081741;28;20384;-79
2021/12/24 08:59:16;;;;;;;21.73;8.00;;;9.00;99.90;;;;;;5081669;28;20088;-79
2021/12/24 09:01:43;;;;;;;26.80;8.63;;;9.00;99.90;;;;;;5081708;28;20069;-79
2021/12/24 09:04:13;;;;;;;21.75;7.25;;;9.00;99.90;;;;;;5099724;28;20429;-78
2021/12/24 09:06:39;;;;;;;25.05;7.13;;;9.00;99.90;;;;;;5099743;28;20024;-80
2021/12/24 09:09:06;;;;;;;27.35;7.60;;;9.00;99.90;;;;;;5099996;28;20102;-79
2021/12/24 09:11:36;;;;;;;23.75;7.60;;;9.00;99.90;;;;;;5100280;28;20438;-79
2021/12/24 09:14:02;;;;;;;20.35;6.55;;;9.00;99.90;;;;;;5099698;28;20522;-79
2021/12/24 09:16:28;;;;;;;27.60;7.75;;;9.10;99.90;;;;;;5083029;28;20094;-80
2021/12/24 09:19:04;;;;;;;22.05;6.90;;;9.00;99.90;;;;;;5100691;28;20055;-80
2021/12/24 09:21:30;;;;;;;28.67;7.18;;;9.00;99.90;;;;;;5100120;28;20471;-78
2021/12/24 09:23:57;;;;;;;30.10;8.93;;;9.00;99.90;;;;;;5099925;28;20121;-79
2021/12/24 09:26:29;;;;;;;37.47;10.15;;;9.00;99.90;;;;;;5081304;28;20028;-78
2021/12/24 09:29:03;;;;;;;28.38;8.85;;;9.00;99.90;;;;;;5081679;28;20178;-79
2021/12/24 09:31:28;;;;;;;26.40;7.72;;;9.00;99.90;;;;;;5078135;28;20059;-80
2021/12/24 09:33:55;;;;;;;26.30;7.85;;;9.00;99.90;;;;;;5097087;28;20397;-80
2021/12/24 09:36:25;;;;;;;24.95;8.05;;;9.00;99.90;;;;;;5096245;28;20036;-79
2021/12/24 09:38:56;;;;;;;28.98;7.68;;;9.00;99.90;;;;;;5096103;28;20472;-80
2021/12/24 09:41:22;;;;;;;36.10;8.95;;;9.00;99.90;;;;;;5078244;28;20033;-79
2021/12/24 09:43:49;;;;;;;24.10;7.90;;;9.10;99.90;;;;;;5096269;28;20020;-79
2021/12/24 09:46:15;;;;;;;26.45;7.82;;;9.00;99.90;;;;;;5096234;28;20384;-79
2021/12/24 09:48:41;;;;;;;25.38;8.23;;;9.10;99.90;;;;;;5097017;28;20389;-80
2021/12/24 09:51:07;;;;;;;26.13;8.98;;;9.10;99.90;;;;;;5096783;28;20076;-80
2021/12/24 09:53:36;;;;;;;28.00;8.70;;;9.10;99.90;;;;;;5077803;28;20030;-79
2021/12/24 09:56:05;;;;;;;38.65;10.32;;;9.10;99.90;;;;;;5077641;28;20028;-78
2021/12/24 09:58:31;;;;;;;27.15;8.80;;;9.10;99.90;;;;;;5095896;28;20459;-78
2021/12/24 10:00:56;;;;;;;31.50;8.95;;;9.10;99.90;;;;;;5096392;28;20081;-81
2021/12/24 10:03:34;;;;;;;33.72;9.38;;;9.10;99.90;;;;;;5077571;28;20074;-79
2021/12/24 10:06:00;;;;;;;27.45;9.50;;;9.20;99.90;;;;;;5097530;28;20123;-79
2021/12/24 10:08:28;;;;;;;35.92;9.63;;;9.20;99.90;;;;;;5092708;28;20380;-79
2021/12/24 10:11:04;;;;;;;29.73;9.75;;;9.10;99.90;;;;;;5102984;28;20032;-79
2021/12/24 10:13:36;;;;;;;25.85;7.75;;;9.20;99.90;;;;;;5090947;28;20063;-79
2021/12/24 10:16:17;;;;;;;31.50;8.73;;;9.20;99.90;;;;;;5077855;28;20094;-79
2021/12/24 10:18:54;;;;;;;37.47;9.32;;;9.10;99.90;;;;;;5095587;28;20025;-79
2021/12/24 10:21:23;;;;;;;27.63;9.93;;;9.10;99.90;;;;;;5077499;28;20032;-79
2021/12/24 10:23:53;;;;;;;30.10;9.20;;;9.10;99.90;;;;;;5076912;28;20040;-79
2021/12/24 10:26:18;;;;;;;37.08;10.13;;;9.10;99.90;;;;;;5076954;28;20023;-79
2021/12/24 10:28:56;;;;;;;42.72;10.45;;;9.10;99.90;;;;;;5095342;28;20342;-79
2021/12/24 10:31:40;;;;;;;29.77;10.23;;;9.10;99.90;;;;;;5095311;28;20024;-79
2021/12/24 10:34:12;;;;;;;32.90;8.98;;;9.10;99.90;;;;;;5077610;28;20035;-79
2021/12/24 10:36:52;;;;;;;25.85;7.78;;;9.10;99.90;;;;;;5094769;28;20093;-79
2021/12/24 10:39:19;;;;;;;18.45;7.53;;;9.10;99.90;;;;;;5094941;28;20020;-78
2021/12/24 10:41:49;;;;;;;23.25;7.68;;;9.10;99.90;;;;;;5094623;28;20031;-79
2021/12/24 10:44:20;;;;;;;19.05;6.45;;;9.10;99.90;;;;;;5094706;28;20055;-77
2021/12/24 10:47:08;;;;;;;18.83;6.70;;;9.10;99.90;;;;;;5076909;28;20020;-79
2021/12/24 10:54:58;;;;;;;17.77;5.97;;;9.10;99.90;;;;;;5095518;28;20086;-78
2021/12/24 10:57:29;;;;;;;22.55;6.75;;;9.10;99.90;;;;;;5094860;28;20028;-79
2021/12/24 10:59:58;;;;;;;21.63;7.53;;;9.10;99.90;;;;;;5096180;28;20016;-79
2021/12/24 11:02:33;;;;;;;29.38;8.45;;;9.10;99.90;;;;;;5076713;28;20493;-78
2021/12/24 11:05:00;;;;;;;25.75;7.85;;;9.10;99.90;;;;;;5095565;28;20554;-78
2021/12/24 11:07:40;;;;;;;22.17;7.80;;;9.10;99.90;;;;;;5097174;28;20024;-79
2021/12/24 11:10:23;;;;;;;16.33;5.47;;;9.10;99.90;;;;;;5080657;28;20474;-80
2021/12/24 11:13:07;;;;;;;20.50;7.22;;;9.10;99.90;;;;;;5100309;28;20016;-78
2021/12/24 11:15:41;;;;;;;29.85;9.15;;;9.10;99.90;;;;;;5102651;28;20025;-78
2021/12/24 11:18:22;;;;;;;28.88;8.27;;;9.10;99.90;;;;;;5078980;28;20126;-79
2021/12/24 11:21:00;;;;;;;28.92;8.80;;;9.10;99.90;;;;;;5094823;28;20028;-78
2021/12/24 11:23:27;;;;;;;26.00;7.47;;;9.10;99.90;;;;;;5094448;28;20040;-78
2021/12/24 11:25:56;;;;;;;31.38;8.93;;;9.10;99.90;;;;;;5094340;28;20125;-78
2021/12/24 11:28:24;;;;;;;16.88;6.82;;;9.20;99.90;;;;;;5094054;28;20460;-80
2021/12/24 11:31:04;;;;;;;31.30;8.55;;;9.10;99.90;;;;;;5093780;28;20392;-80
2021/12/24 11:33:33;;;;;;;19.63;7.65;;;9.10;99.90;;;;;;5093968;28;20072;-79
2021/12/24 11:36:02;;;;;;;21.98;7.10;;;9.10;99.90;;;;;;5094146;28;20468;-79
2021/12/24 11:38:32;;;;;;;20.33;7.55;;;9.20;99.90;;;;;;5078656;28;20056;-79
2021/12/24 11:40:59;;;;;;;24.80;8.02;;;9.20;99.90;;;;;;5075902;28;20028;-80
2021/12/24 11:43:31;;;;;;;22.75;7.40;;;9.20;99.90;;;;;;5093859;28;20034;-79
2021/12/24 11:45:59;;;;;;;15.68;6.28;;;9.20;99.90;;;;;;5093905;28;20081;-79
2021/12/24 11:48:31;;;;;;;27.23;6.80;;;9.20;99.90;;;;;;5075758;28;20132;-79
2021/12/24 11:50:59;;;;;;;23.00;6.72;;;9.30;99.90;;;;;;5093860;28;20024;-79
2021/12/24 11:53:26;;;;;;;22.50;6.45;;;9.30;99.90;;;;;;5093349;28;20085;-78
2021/12/24 11:55:52;;;;;;;18.50;5.35;;;9.40;99.90;;;;;;5076311;28;20410;-79
2021/12/24 11:58:25;;;;;;;22.02;6.00;;;9.40;99.90;;;;;;5100714;28;20079;-79
2021/12/24 12:00:54;;;;;;;21.90;6.53;;;9.40;99.90;;;;;;5104433;28;20020;-79
2021/12/24 12:04:05;;;;;;;21.95;6.20;;;9.50;99.90;;;;;;5110207;28;20020;-79
2021/12/24 12:06:34;;;;;;;16.77;5.22;;;9.50;99.90;;;;;;5059581;28;20487;-79
2021/12/24 12:09:10;;;;;;;18.92;4.60;;;9.50;99.90;;;;;;5075216;28;20027;-79
2021/12/24 12:11:38;;;;;;;16.83;5.15;;;9.50;99.90;;;;;;5092981;28;20406;-79
2021/12/24 12:14:04;;;;;;;17.77;5.53;;;9.50;99.90;;;;;;5093501;28;20031;-79
2021/12/24 12:16:39;;;;;;;17.75;5.28;;;9.50;99.90;;;;;;5094315;28;20028;-78
2021/12/24 12:19:15;;;;;;;22.02;5.72;;;9.60;99.90;;;;;;5094194;28;20028;-79
2021/12/24 12:22:11;;;;;;;15.75;4.88;;;9.60;99.90;;;;;;5075735;28;20088;-80
2021/12/24 12:27:31;;;;;;;12.35;4.43;;;9.60;99.90;;;;;;5093585;28;20032;-79
2021/12/24 12:29:57;;;;;;;17.20;4.90;;;9.60;99.90;;;;;;5093635;28;20103;-78
2021/12/24 12:32:24;;;;;;;15.25;6.03;;;9.60;99.90;;;;;;5093262;28;20052;-78
2021/12/24 12:34:58;;;;;;;19.80;5.70;;;9.60;99.90;;;;;;5074925;28;20036;-79
2021/12/24 12:37:42;;;;;;;20.67;5.57;;;9.50;99.90;;;;;;5094169;28;20028;-79
2021/12/24 12:40:17;;;;;;;15.80;4.80;;;9.50;99.90;;;;;;5094081;28;20020;-79
2021/12/24 12:42:52;;;;;;;16.50;6.22;;;9.50;99.90;;;;;;5093227;28;20031;-79
2021/12/24 12:45:20;;;;;;;17.63;5.93;;;9.50;99.90;;;;;;5093404;28;20119;-79
2021/12/24 12:47:57;;;;;;;23.60;6.18;;;9.40;99.90;;;;;;5075415;28;20043;-80
2021/12/24 12:50:25;;;;;;;18.55;6.30;;;9.30;99.90;;;;;;5093178;28;20020;-79
2021/12/24 12:52:58;;;;;;;13.82;4.75;;;9.30;99.90;;;;;;5093624;28;20024;-80
2021/12/24 12:55:33;;;;;;;22.38;6.40;;;9.20;99.90;;;;;;5093334;28;20058;-77
2021/12/24 12:58:21;;;;;;;20.67;6.70;;;9.20;99.90;;;;;;5092858;28;20024;-79
2021/12/24 13:01:03;;;;;;;19.38;6.30;;;9.10;99.90;;;;;;5075114;28;20119;-79
2021/12/24 13:03:30;;;;;;;18.58;5.72;;;9.20;99.90;;;;;;5075635;28;20067;-79
2021/12/24 13:06:04;;;;;;;17.83;6.72;;;9.20;99.90;;;;;;5093740;28;20028;-79
2021/12/24 13:08:36;;;;;;;26.88;6.75;;;9.10;99.90;;;;;;5078333;28;20027;-77
2021/12/24 13:11:20;;;;;;;28.60;8.27;;;9.10;99.90;;;;;;5078405;28;20024;-79
2021/12/24 13:13:55;;;;;;;18.40;6.20;;;9.10;99.90;;;;;;5096666;28;20016;-78
2021/12/24 13:16:37;;;;;;;20.13;5.85;;;9.10;99.90;;;;;;5096656;28;20024;-79
2021/12/24 13:25:06;;;;;;;30.85;7.80;;;9.10;99.90;;;;;;5096717;28;20105;-77
2021/12/24 13:27:37;;;;;;;29.50;8.25;;;9.10;99.90;;;;;;5078066;28;20028;-78
2021/12/24 13:30:31;;;;;;;23.42;8.38;;;9.00;99.90;;;;;;5096416;28;20439;-77
2021/12/24 13:33:03;;;;;;;28.67;8.40;;;9.10;99.90;;;;;;5068416;28;20063;-78
2021/12/24 13:35:41;;;;;;;32.33;8.95;;;9.10;99.90;;;;;;5096120;28;20031;-78
2021/12/24 13:38:19;;;;;;;21.02;8.18;;;9.10;99.90;;;;;;5078095;28;20093;-79
2021/12/24 13:40:47;;;;;;;26.58;8.48;;;9.10;99.90;;;;;;5095677;28;20488;-79
2021/12/24 13:43:14;;;;;;;37.10;9.73;;;9.10;99.90;;;;;;5095894;28;20126;-79
2021/12/24 13:45:43;;;;;;;23.88;7.78;;;9.00;99.90;;;;;;5077691;28;20024;-79
2021/12/24 13:48:16;;;;;;;28.00;9.63;;;9.00;99.90;;;;;;5099079;28;20085;-79
2021/12/24 13:56:23;;;;;;;34.72;9.38;;;9.10;99.90;;;;;;5105443;28;20236;-78
2021/12/24 13:58:54;;;;;;;24.30;8.40;;;9.10;99.90;;;;;;5078387;28;20399;-77
2021/12/24 14:01:27;;;;;;;;;;;9.10;99.90;;;;;;5078264;28;20031;-78
2021/12/24 14:03:53;;;;;;;25.25;8.48;;;9.10;99.90;;;;;;5095558;28;19911;-77
2021/12/24 14:06:20;;;;;;;27.35;8.23;;;9.10;99.90;;;;;;5095351;28;20028;-78
2021/12/24 14:08:45;;;;;;;27.75;7.75;;;9.10;99.90;;;;;;5095676;28;20031;-78
2021/12/24 14:11:22;;;;;;;27.27;8.07;;;9.10;99.90;;;;;;5077310;28;20380;-79
2021/12/24 14:13:56;;;;;;;28.38;8.98;;;9.10;99.90;;;;;;5095686;28;20028;-79
2021/12/24 14:19:18;;;;;;;41.08;10.73;;;9.10;99.90;;;;;;5095905;28;20085;-78
2021/12/24 14:21:46;;;;;;;29.20;9.32;;;9.10;99.90;;;;;;5095863;28;20016;-78
2021/12/24 14:24:22;;;;;;;22.95;7.57;;;9.10;99.90;;;;;;5096066;28;20472;-78
2021/12/24 14:26:55;;;;;;;31.15;8.95;;;9.10;99.90;;;;;;5095085;28;20051;-78
2021/12/24 14:29:35;;;;;;;23.23;7.05;;;9.10;99.90;;;;;;5095261;28;20095;-79
2021/12/24 14:32:10;;;;;;;21.90;7.90;;;9.10;99.90;;;;;;5095464;28;20019;-79
2021/12/24 14:34:35;;;;;;;27.45;7.45;;;9.10;99.90;;;;;;5095050;28;20108;-78
2021/12/24 14:37:03;;;;;;;17.70;6.25;;;9.10;99.90;;;;;;5095051;28;20095;-79
2021/12/24 14:39:57;;;;;;;23.65;7.47;;;9.10;99.90;;;;;;5095525;28;20031;-79
2021/12/24 14:42:39;;;;;;;24.38;8.35;;;9.10;99.90;;;;;;5091391;28;20036;-78
2021/12/24 14:45:40;;;;;;;28.48;7.72;;;9.10;99.90;;;;;;5077356;28;20024;-78
2021/12/24 14:48:07;;;;;;;20.67;7.65;;;9.10;99.90;;;;;;5094805;28;20035;-78
2021/12/24 14:50:53;;;;;;;26.35;8.13;;;9.10;99.90;;;;;;5094727;28;20111;-78
2021/12/24 14:53:37;;;;;;;24.67;8.10;;;9.10;99.90;;;;;;5094859;28;20024;-79
2021/12/24 14:56:16;;;;;;;22.10;7.60;;;9.10;99.90;;;;;;5076328;28;20031;-79